createdAt,value
2023-03-15T00:00:54.625Z,2.17
2023-03-15T00:01:54.641Z,2.22
2023-03-15T00:02:54.713Z,2.19
2023-03-15T00:03:54.783Z,2.21
2023-03-15T00:04:54.824Z,2.23
2023-03-15T00:05:54.881Z,2.20
2023-03-15T00:06:54.907Z,2.21
2023-03-15T00:07:54.932Z,2.17
2023-03-15T00:10:55.123Z,2.19
2023-03-15T00:11:55.151Z,2.18
2023-03-15T00:12:55.185Z,2.18
2023-03-15T00:13:55.267Z,2.19
2023-03-15T00:14:55.279Z,2.23
2023-03-15T00:15:55.352Z,2.24
2023-03-15T00:16:55.415Z,2.23
2023-03-15T00:17:55.459Z,2.18
2023-03-15T00:18:55.484Z,2.17
2023-03-15T00:19:55.570Z,2.10
2023-03-15T00:20:55.618Z,2.12
2023-03-15T00:21:55.675Z,2.14
2023-03-15T00:22:55.709Z,2.13
2023-03-15T00:23:55.762Z,2.14
2023-03-15T00:24:55.823Z,2.14
2023-03-15T00:25:55.876Z,2.18
2023-03-15T00:26:55.922Z,2.15
2023-03-15T00:27:55.983Z,2.13
2023-03-15T00:28:56.043Z,2.13
2023-03-15T00:29:56.086Z,2.12
2023-03-15T00:30:56.167Z,2.07
2023-03-15T00:31:56.156Z,2.12
2023-03-15T00:32:56.337Z,2.09
2023-03-15T00:33:56.811Z,2.08
2023-03-15T00:34:56.323Z,2.11
2023-03-15T00:40:56.636Z,2.06
2023-03-15T00:41:56.705Z,2.06
2023-03-15T00:42:56.719Z,2.13
2023-03-15T00:43:56.794Z,2.13
2023-03-15T00:44:56.824Z,2.13
2023-03-15T00:45:56.886Z,2.12
2023-03-15T00:46:57.004Z,2.11
2023-03-15T00:47:56.999Z,2.13
2023-03-15T00:48:57.028Z,2.07
2023-03-15T00:49:57.097Z,2.09
2023-03-15T00:50:57.142Z,2.10
2023-03-15T00:51:57.219Z,2.10
2023-03-15T00:52:57.237Z,2.10
2023-03-15T00:53:57.281Z,2.09
2023-03-15T00:54:57.354Z,2.10
2023-03-15T00:55:57.406Z,2.08
2023-03-15T00:56:57.466Z,2.03
2023-03-15T00:57:57.489Z,2.04
2023-03-15T00:58:57.581Z,2.05
2023-03-15T00:59:57.631Z,2.00
2023-03-15T01:06:57.978Z,1.98
2023-03-15T01:07:58.020Z,1.93
2023-03-15T01:08:58.050Z,1.98
2023-03-15T01:09:58.089Z,1.91
2023-03-15T01:10:58.818Z,1.97
2023-03-15T01:11:58.184Z,1.95
2023-03-15T01:12:58.244Z,1.94
2023-03-15T01:13:58.297Z,1.97
2023-03-15T01:14:58.357Z,1.93
2023-03-15T01:15:58.420Z,1.92
2023-03-15T01:16:58.447Z,1.91
2023-03-15T01:17:58.504Z,1.91
2023-03-15T01:18:58.536Z,1.90
2023-03-15T01:19:58.575Z,1.87
2023-03-15T01:20:58.623Z,1.86
2023-03-15T01:21:58.711Z,1.89
2023-03-15T01:22:58.739Z,1.87
2023-03-15T01:23:58.789Z,1.86
2023-03-15T01:24:58.806Z,1.86
2023-03-15T01:25:58.883Z,1.86
2023-03-15T01:26:58.933Z,1.85
2023-03-15T01:27:58.961Z,1.84
2023-03-15T01:28:59.024Z,1.84
2023-03-15T01:29:59.084Z,1.84
2023-03-15T01:31:00.092Z,1.86
2023-03-15T01:31:59.184Z,1.80
2023-03-15T01:32:59.274Z,1.76
2023-03-15T01:33:59.240Z,1.80
2023-03-15T01:34:59.295Z,1.78
2023-03-15T01:35:59.417Z,1.76
2023-03-15T01:36:59.523Z,1.75
2023-03-15T01:37:59.439Z,1.77
2023-03-15T01:38:59.496Z,1.75
2023-03-15T01:39:59.530Z,1.72
2023-03-15T01:40:59.621Z,1.73
2023-03-15T01:41:59.661Z,1.75
2023-03-15T01:42:59.698Z,1.73
2023-03-15T01:43:59.779Z,1.81
2023-03-15T01:44:59.837Z,1.85
2023-03-15T01:45:59.893Z,1.87
2023-03-15T01:47:00.009Z,1.88
2023-03-15T01:47:59.954Z,1.86
2023-03-15T01:49:00.038Z,1.82
2023-03-15T01:50:00.106Z,1.83
2023-03-15T01:51:00.135Z,1.81
2023-03-15T01:52:00.162Z,1.84
2023-03-15T01:53:00.196Z,1.79
2023-03-15T01:54:00.293Z,1.81
2023-03-15T01:55:00.312Z,1.73
2023-03-15T01:56:00.341Z,1.77
2023-03-15T01:57:00.427Z,1.77
2023-03-15T01:58:00.480Z,1.78
2023-03-15T01:59:00.528Z,1.72
2023-03-15T02:00:00.589Z,1.72
2023-03-15T02:01:00.662Z,1.69
2023-03-15T02:02:00.673Z,1.68
2023-03-15T02:03:00.715Z,1.69
2023-03-15T02:04:00.785Z,1.69
2023-03-15T02:05:00.782Z,1.73
2023-03-15T02:06:00.863Z,1.73
2023-03-15T02:07:00.911Z,1.74
2023-03-15T02:08:00.936Z,1.72
2023-03-15T02:09:00.993Z,1.74
2023-03-15T02:10:01.120Z,1.73
2023-03-15T02:11:01.093Z,1.72
2023-03-15T02:12:01.178Z,1.73
2023-03-15T02:13:01.280Z,1.72
2023-03-15T02:14:01.303Z,1.72
2023-03-15T02:16:01.426Z,1.72
2023-03-15T02:17:01.395Z,1.70
2023-03-15T02:18:01.450Z,1.76
2023-03-15T02:19:01.497Z,1.73
2023-03-15T02:20:01.553Z,1.72
2023-03-15T02:21:01.580Z,1.68
2023-03-15T02:22:01.667Z,1.68
2023-03-15T02:23:01.707Z,1.69
2023-03-15T02:24:01.741Z,1.69
2023-03-15T02:25:01.794Z,1.63
2023-03-15T02:26:01.852Z,1.67
2023-03-15T02:27:01.936Z,1.69
2023-03-15T02:28:01.991Z,1.67
2023-03-15T02:29:02.005Z,1.69
2023-03-15T02:30:02.084Z,1.68
2023-03-15T02:31:02.135Z,1.66
2023-03-15T02:32:02.217Z,1.66
2023-03-15T02:33:02.235Z,1.66
2023-03-15T02:34:02.300Z,1.72
2023-03-15T02:35:02.374Z,1.72
2023-03-15T02:36:02.460Z,1.69
2023-03-15T02:37:02.438Z,1.72
2023-03-15T02:38:02.507Z,1.74
2023-03-15T02:39:02.536Z,1.73
2023-03-15T02:40:02.573Z,1.72
2023-03-15T02:41:02.612Z,1.72
2023-03-15T02:42:02.685Z,1.66
2023-03-15T02:43:02.694Z,1.66
2023-03-15T02:44:02.816Z,1.68
2023-03-15T02:45:02.840Z,1.66
2023-03-15T02:46:02.888Z,1.66
2023-03-15T02:47:02.892Z,1.72
2023-03-15T02:48:02.925Z,1.72
2023-03-15T02:49:03.014Z,1.74
2023-03-15T02:50:03.065Z,1.73
2023-03-15T02:51:03.123Z,1.69
2023-03-15T02:52:03.145Z,1.68
2023-03-15T02:53:03.207Z,1.66
2023-03-15T02:54:03.237Z,1.67
2023-03-15T02:55:03.325Z,1.72
2023-03-15T02:56:03.365Z,1.72
2023-03-15T02:57:03.429Z,1.69
2023-03-15T02:58:03.491Z,1.74
2023-03-15T02:59:03.517Z,1.76
2023-03-15T03:00:03.569Z,1.70
2023-03-15T03:01:03.642Z,1.45
2023-03-15T03:02:03.723Z,1.34
2023-03-15T03:03:03.756Z,1.24
2023-03-15T03:04:03.768Z,1.17
2023-03-15T03:05:03.901Z,1.18
2023-03-15T03:06:03.849Z,1.22
2023-03-15T03:07:03.921Z,1.49
2023-03-15T03:08:03.969Z,1.54
2023-03-15T03:09:04.062Z,1.56
2023-03-15T03:10:04.095Z,1.55
2023-03-15T03:11:04.127Z,1.49
2023-03-15T03:12:04.247Z,1.52
2023-03-15T03:13:04.281Z,1.54
2023-03-15T03:14:04.315Z,1.53
2023-03-15T03:15:04.350Z,1.45
2023-03-15T03:16:04.401Z,1.44
2023-03-15T03:17:04.451Z,1.44
2023-03-15T03:18:04.481Z,1.43
2023-03-15T03:19:04.532Z,1.49
2023-03-15T03:20:04.580Z,1.51
2023-03-15T03:21:04.647Z,1.54
2023-03-15T03:22:04.703Z,1.51
2023-03-15T03:23:04.756Z,1.48
2023-03-15T03:24:04.814Z,1.48
2023-03-15T03:25:04.830Z,1.44
2023-03-15T03:26:04.880Z,1.48
2023-03-15T03:27:04.946Z,1.45
2023-03-15T03:28:04.959Z,1.49
2023-03-15T03:29:05.010Z,1.51
2023-03-15T03:30:05.062Z,1.52
2023-03-15T03:31:05.157Z,1.47
2023-03-15T03:32:05.134Z,1.49
2023-03-15T03:33:05.206Z,1.49
2023-03-15T03:34:05.247Z,1.49
2023-03-15T03:35:05.334Z,1.45
2023-03-15T03:36:05.392Z,1.47
2023-03-15T03:37:05.408Z,1.50
2023-03-15T03:38:05.454Z,1.49
2023-03-15T03:39:05.476Z,1.51
2023-03-15T03:40:05.559Z,1.53
2023-03-15T03:41:05.571Z,1.44
2023-03-15T03:42:05.630Z,1.41
2023-03-15T03:43:05.705Z,1.36
2023-03-15T03:44:05.739Z,1.35
2023-03-15T03:45:05.833Z,1.34
2023-03-15T03:46:05.841Z,1.41
2023-03-15T03:47:05.870Z,1.46
2023-03-15T03:48:05.940Z,1.49
2023-03-15T03:49:06.008Z,1.47
2023-03-15T03:50:06.000Z,1.43
2023-03-15T03:51:06.094Z,1.48
2023-03-15T03:52:06.134Z,1.47
2023-03-15T03:53:06.205Z,1.48
2023-03-15T03:54:06.244Z,1.49
2023-03-15T03:55:06.280Z,1.50
2023-03-15T03:56:06.336Z,1.42
2023-03-15T03:57:06.407Z,1.42
2023-03-15T03:58:06.447Z,1.40
2023-03-15T03:59:06.494Z,1.40
2023-03-15T04:00:06.564Z,1.42
2023-03-15T04:01:06.613Z,1.47
2023-03-15T04:02:06.689Z,1.53
2023-03-15T04:03:06.696Z,1.51
2023-03-15T04:04:06.732Z,1.55
2023-03-15T04:05:06.809Z,1.55
2023-03-15T04:06:06.850Z,1.54
2023-03-15T04:07:06.932Z,1.59
2023-03-15T04:08:06.922Z,1.60
2023-03-15T04:09:06.989Z,1.54
2023-03-15T04:10:07.024Z,1.51
2023-03-15T04:11:07.107Z,1.43
2023-03-15T04:12:07.195Z,1.48
2023-03-15T04:13:07.228Z,1.49
2023-03-15T04:14:07.298Z,1.44
2023-03-15T04:15:07.340Z,1.37
2023-03-15T04:16:07.465Z,1.36
2023-03-15T04:17:07.423Z,1.36
2023-03-15T04:18:07.511Z,1.32
2023-03-15T04:19:07.561Z,1.31
2023-03-15T04:20:07.616Z,1.32
2023-03-15T04:21:07.662Z,1.31
2023-03-15T04:22:07.695Z,1.28
2023-03-15T04:23:07.751Z,1.29
2023-03-15T04:24:07.769Z,1.28
2023-03-15T04:25:07.874Z,1.30
2023-03-15T04:26:07.895Z,1.25
2023-03-15T04:27:07.929Z,1.23
2023-03-15T04:28:07.936Z,1.21
2023-03-15T04:29:08.017Z,1.18
2023-03-15T04:30:08.070Z,1.17
2023-03-15T04:31:08.096Z,1.17
2023-03-15T04:32:08.126Z,1.18
2023-03-15T04:33:08.178Z,1.22
2023-03-15T04:34:08.184Z,1.32
2023-03-15T04:35:08.270Z,1.21
2023-03-15T04:36:08.296Z,1.12
2023-03-15T04:37:08.288Z,1.08
2023-03-15T04:38:08.339Z,1.12
2023-03-15T04:39:08.399Z,1.12
2023-03-15T04:40:08.436Z,1.13
2023-03-15T04:41:08.452Z,1.11
2023-03-15T04:42:08.487Z,1.10
2023-03-15T04:43:08.510Z,1.13
2023-03-15T04:44:08.534Z,1.12
2023-03-15T04:45:08.575Z,1.07
2023-03-15T04:46:08.616Z,1.09
2023-03-15T04:47:08.676Z,1.10
2023-03-15T04:48:08.670Z,1.10
2023-03-15T04:49:08.680Z,1.10
2023-03-15T04:50:08.736Z,1.08
2023-03-15T04:51:08.737Z,1.09
2023-03-15T04:52:08.766Z,1.08
2023-03-15T04:53:08.808Z,1.10
2023-03-15T04:54:08.801Z,1.14
2023-03-15T04:55:08.854Z,1.12
2023-03-15T04:56:08.858Z,1.11
2023-03-15T04:57:08.876Z,1.10
2023-03-15T04:58:08.955Z,1.12
2023-03-15T04:59:08.958Z,1.14
2023-03-15T05:00:08.996Z,1.11
2023-03-15T05:01:09.048Z,1.13
2023-03-15T05:02:09.094Z,1.13
2023-03-15T05:03:09.044Z,1.12
2023-03-15T05:04:09.137Z,1.11
2023-03-15T05:05:09.116Z,1.14
2023-03-15T05:06:09.133Z,1.15
2023-03-15T05:07:09.180Z,1.14
2023-03-15T05:08:09.217Z,1.14
2023-03-15T05:09:09.245Z,1.16
2023-03-15T05:10:09.261Z,1.15
2023-03-15T05:11:09.300Z,1.14
2023-03-15T05:12:09.347Z,1.12
2023-03-15T05:13:09.352Z,1.14
2023-03-15T05:14:09.385Z,1.11
2023-03-15T05:15:09.410Z,1.13
2023-03-15T05:56:10.493Z,1.14
2023-03-15T06:01:17.646Z,1.15
2023-03-15T06:11:10.592Z,1.19
2023-03-15T06:46:17.534Z,0.80
2023-03-15T06:49:10.416Z,0.70
2023-03-15T08:07:10.514Z,0.70
2023-03-15T08:10:10.508Z,0.70
2023-03-15T08:15:10.617Z,0.99
2023-03-15T08:16:10.644Z,1.17
2023-03-15T08:17:11.015Z,1.52
2023-03-15T08:18:10.627Z,2.62
2023-03-15T08:19:10.670Z,4.76
2023-03-15T08:20:10.753Z,7.54
2023-03-15T08:21:10.792Z,12.12
2023-03-15T08:22:10.849Z,17.00
2023-03-15T08:23:10.800Z,20.89
2023-03-15T08:24:10.843Z,25.66
2023-03-15T08:25:10.880Z,30.79
2023-03-15T08:26:10.850Z,34.47
2023-03-15T08:27:10.924Z,41.27
2023-03-15T08:28:10.980Z,47.36
2023-03-15T08:29:10.991Z,54.39
2023-03-15T08:30:11.078Z,61.20
2023-03-15T08:31:11.187Z,58.57
2023-03-15T08:32:11.540Z,64.88
2023-03-15T08:33:11.276Z,68.94
2023-03-15T08:34:11.313Z,71.27
2023-03-15T08:35:12.040Z,57.79
2023-03-15T08:36:11.475Z,65.86
2023-03-15T08:41:11.751Z,79.10
2023-03-15T08:42:11.782Z,65.32
2023-03-15T08:43:12.063Z,72.69
2023-03-15T08:44:12.074Z,68.52
2023-03-15T08:45:11.980Z,68.32
2023-03-15T08:46:12.021Z,74.45
2023-03-15T08:47:12.052Z,82.86
2023-03-15T08:48:12.549Z,78.83
2023-03-15T08:49:12.167Z,65.52
2023-03-15T08:50:12.231Z,61.97
2023-03-15T08:51:12.191Z,52.40
2023-03-15T08:52:12.238Z,43.55
2023-03-15T08:53:12.276Z,39.99
2023-03-15T08:54:12.345Z,45.75
2023-03-15T08:55:12.365Z,43.83
2023-03-15T08:56:12.392Z,54.15
2023-03-15T08:57:12.447Z,49.53
2023-03-15T08:58:12.577Z,53.71
2023-03-15T08:59:19.213Z,53.58
2023-03-15T09:00:13.422Z,53.94
2023-03-15T09:01:12.426Z,49.26
2023-03-15T09:02:12.444Z,44.76
2023-03-15T09:03:12.374Z,45.18
2023-03-15T09:04:12.467Z,42.98
2023-03-15T09:05:12.373Z,34.24
2023-03-15T09:06:12.353Z,22.48
2023-03-15T09:07:12.382Z,9.54
2023-03-15T09:08:12.374Z,6.21
2023-03-15T09:09:12.334Z,4.93
2023-03-15T09:10:12.358Z,4.07
2023-03-15T09:11:12.320Z,3.70
2023-03-15T09:12:12.335Z,3.85
2023-03-15T09:13:12.308Z,2.74
2023-03-15T09:14:12.309Z,3.18
2023-03-15T09:15:12.325Z,4.20
2023-03-15T09:16:12.338Z,3.45
2023-03-15T09:17:12.528Z,3.32
2023-03-15T09:18:12.535Z,2.95
2023-03-15T09:19:12.558Z,2.54
2023-03-15T09:20:12.613Z,2.39
2023-03-15T09:21:12.662Z,1.90
2023-03-15T09:22:23.485Z,1.80
2023-03-15T09:23:14.043Z,1.29
2023-03-15T09:24:12.720Z,1.20
2023-03-15T09:25:12.682Z,1.36
2023-03-15T09:26:12.707Z,1.13
2023-03-15T09:27:12.702Z,1.15
2023-03-15T09:28:13.101Z,1.61
2023-03-15T09:29:12.672Z,2.14
2023-03-15T09:30:12.696Z,2.00
2023-03-15T09:31:12.716Z,2.43
2023-03-15T09:32:12.719Z,6.12
2023-03-15T09:33:13.105Z,9.88
2023-03-15T09:34:12.820Z,18.90
2023-03-15T09:37:13.007Z,29.40
2023-03-15T09:38:13.057Z,26.38
2023-03-15T09:39:13.075Z,23.78
2023-03-15T09:40:13.135Z,28.85
2023-03-15T09:41:13.194Z,28.64
2023-03-15T09:42:13.186Z,25.04
2023-03-15T09:43:13.587Z,15.48
2023-03-15T09:44:13.316Z,20.91
2023-03-15T09:45:13.360Z,20.01
2023-03-15T09:46:13.451Z,21.10
2023-03-15T09:47:13.432Z,17.79
2023-03-15T09:48:13.491Z,16.09
2023-03-15T09:49:13.521Z,14.04
2023-03-15T09:50:13.573Z,15.24
2023-03-15T09:51:13.601Z,16.67
2023-03-15T09:52:13.639Z,15.51
2023-03-15T09:53:14.054Z,14.53
2023-03-15T09:54:13.758Z,16.43
2023-03-15T09:55:13.749Z,5.12
2023-03-15T09:56:13.797Z,2.39
2023-03-15T09:57:13.866Z,1.05
2023-03-15T09:58:13.914Z,0.51
2023-03-15T09:59:14.586Z,0.56
2023-03-15T10:00:14.029Z,0.70
2023-03-15T10:01:14.142Z,0.51
2023-03-15T10:02:14.105Z,0.53
2023-03-15T10:03:14.160Z,1.18
2023-03-15T10:05:14.128Z,1.14
2023-03-15T10:06:14.136Z,0.90
2023-03-15T10:07:14.137Z,0.65
2023-03-15T10:08:14.107Z,0.54
2023-03-15T10:09:14.128Z,0.53
2023-03-15T10:10:14.231Z,0.45
2023-03-15T10:11:14.204Z,0.51
2023-03-15T10:12:14.178Z,0.74
2023-03-15T10:13:14.273Z,0.50
2023-03-15T10:14:14.298Z,0.42
2023-03-15T10:15:14.305Z,0.65
2023-03-15T10:16:14.391Z,0.63
2023-03-15T10:21:14.481Z,0.80
2023-03-15T10:22:14.560Z,0.49
2023-03-15T10:23:14.583Z,0.52
2023-03-15T10:24:14.619Z,0.58
2023-03-15T10:25:14.627Z,0.54
2023-03-15T10:26:14.680Z,0.73
2023-03-15T10:27:14.709Z,0.65
2023-03-15T10:28:14.746Z,0.83
2023-03-15T10:29:14.748Z,0.81
2023-03-15T10:30:14.789Z,0.67
2023-03-15T10:31:21.594Z,0.81
2023-03-15T10:32:15.823Z,0.81
2023-03-15T10:33:14.771Z,0.67
2023-03-15T10:34:14.782Z,0.90
2023-03-15T10:35:14.785Z,1.47
2023-03-15T10:36:14.774Z,3.76
2023-03-15T10:37:14.727Z,7.00
2023-03-15T10:38:14.735Z,10.49
2023-03-15T10:39:15.105Z,13.10
2023-03-15T10:41:17.877Z,21.82
2023-03-15T10:42:15.713Z,22.09
2023-03-15T10:43:14.701Z,23.69
2023-03-15T10:44:15.107Z,28.15
2023-03-15T10:45:14.680Z,41.24
2023-03-15T10:46:14.761Z,68.52
2023-03-15T10:47:23.474Z,80.30
2023-03-15T10:48:15.664Z,77.53
2023-03-15T10:49:15.106Z,95.81
2023-03-15T10:50:14.664Z,157.82
2023-03-15T10:51:14.651Z,175.87
2023-03-15T10:52:14.649Z,265.60
2023-03-15T10:56:14.614Z,58.37
2023-03-15T10:57:14.626Z,43.28
2023-03-15T10:58:14.729Z,36.11
2023-03-15T10:59:14.776Z,26.72
2023-03-15T11:00:14.801Z,17.65
2023-03-15T11:01:14.911Z,16.76
2023-03-15T11:02:14.959Z,16.69
2023-03-15T11:03:15.003Z,13.44
2023-03-15T11:04:15.086Z,20.24
2023-03-15T11:05:15.137Z,20.47
2023-03-15T11:06:15.199Z,16.99
2023-03-15T11:07:15.190Z,18.71
2023-03-15T11:08:15.153Z,20.00
2023-03-15T11:09:15.215Z,17.92
2023-03-15T11:10:15.224Z,20.18
2023-03-15T11:11:15.227Z,28.42
2023-03-15T11:12:16.119Z,26.81
2023-03-15T11:13:15.211Z,26.77
2023-03-15T11:14:15.240Z,20.79
2023-03-15T11:15:15.240Z,19.16
2023-03-15T11:16:15.329Z,16.97
2023-03-15T11:17:15.264Z,16.44
2023-03-15T11:18:15.263Z,18.28
2023-03-15T11:19:15.262Z,20.20
2023-03-15T11:20:15.230Z,18.72
2023-03-15T11:21:15.249Z,15.02
2023-03-15T11:22:15.247Z,17.58
2023-03-15T11:23:15.212Z,21.54
2023-03-15T11:24:15.633Z,14.89
2023-03-15T11:25:15.328Z,12.05
2023-03-15T11:26:29.372Z,13.79
2023-03-15T11:27:16.224Z,12.78
2023-03-15T11:28:15.241Z,11.42
2023-03-15T11:29:15.233Z,11.33
2023-03-15T11:30:15.212Z,11.26
2023-03-15T11:31:15.301Z,9.88
2023-03-15T11:32:15.210Z,7.74
2023-03-15T11:33:15.204Z,8.55
2023-03-15T11:45:15.092Z,3.92
2023-03-15T11:46:15.169Z,3.88
2023-03-15T11:47:15.064Z,3.94
2023-03-15T11:48:15.070Z,4.21
2023-03-15T11:49:15.080Z,3.44
2023-03-15T11:50:15.239Z,3.41
2023-03-15T11:51:15.064Z,2.99
2023-03-15T11:52:15.044Z,3.78
2023-03-15T11:53:15.040Z,3.52
2023-03-15T11:54:15.009Z,3.01
2023-03-15T11:55:15.033Z,3.09
2023-03-15T11:56:15.019Z,2.56
2023-03-15T11:57:15.023Z,1.80
2023-03-15T11:58:15.037Z,1.36
2023-03-15T11:59:15.114Z,0.98
2023-03-15T12:00:14.970Z,1.06
2023-03-15T12:01:14.971Z,0.84
2023-03-15T12:02:15.042Z,0.62
2023-03-15T12:03:15.081Z,0.61
2023-03-15T12:04:15.874Z,0.51
2023-03-15T12:05:18.327Z,0.46
2023-03-15T12:06:15.152Z,0.50
2023-03-15T12:07:15.505Z,0.55
2023-03-15T12:08:15.103Z,0.54
2023-03-15T12:09:15.072Z,0.62
2023-03-15T12:10:15.130Z,0.51
2023-03-15T12:11:15.072Z,0.56
2023-03-15T12:12:15.091Z,0.68
2023-03-15T12:13:15.079Z,0.63
2023-03-15T12:14:15.074Z,0.62
2023-03-15T12:15:15.288Z,0.76
2023-03-15T12:16:15.020Z,0.72
2023-03-15T12:17:15.038Z,0.67
2023-03-15T12:18:15.023Z,0.77
2023-03-15T12:19:15.027Z,0.88
2023-03-15T12:20:15.127Z,0.76
2023-03-15T12:21:15.025Z,0.99
2023-03-15T12:22:14.994Z,1.18
2023-03-15T12:23:14.992Z,1.11
2023-03-15T12:24:14.988Z,1.41
2023-03-15T12:25:14.980Z,1.43
2023-03-15T12:26:14.981Z,1.72
2023-03-15T12:27:14.980Z,1.89
2023-03-15T12:28:14.973Z,1.51
2023-03-15T12:29:14.946Z,1.42
2023-03-15T12:30:15.169Z,1.72
2023-03-15T12:31:15.079Z,1.50
2023-03-15T12:32:14.994Z,1.66
2023-03-15T12:33:14.963Z,3.30
2023-03-15T12:34:14.932Z,11.00
2023-03-15T12:35:15.611Z,15.23
2023-03-15T12:36:14.878Z,25.07
2023-03-15T12:37:14.882Z,27.88
2023-03-15T12:38:14.893Z,12.35
2023-03-15T12:39:14.863Z,9.00
2023-03-15T12:40:14.961Z,9.68
2023-03-15T12:41:14.880Z,8.96
2023-03-15T12:42:14.862Z,7.92
2023-03-15T12:43:14.850Z,7.63
2023-03-15T12:44:14.854Z,8.35
2023-03-15T12:45:14.840Z,9.03
2023-03-15T12:46:14.909Z,8.54
2023-03-15T12:47:14.796Z,7.61
2023-03-15T12:48:14.794Z,8.95
2023-03-15T12:49:14.864Z,7.46
2023-03-15T12:50:14.873Z,6.11
2023-03-15T12:51:14.932Z,7.46
2023-03-15T12:52:14.911Z,7.80
2023-03-15T12:53:14.955Z,7.46
2023-03-15T12:54:15.005Z,3.80
2023-03-15T12:55:15.007Z,3.75
2023-03-15T12:56:15.052Z,4.15
2023-03-15T12:57:15.044Z,5.02
2023-03-15T12:58:15.133Z,5.59
2023-03-15T12:59:15.149Z,4.54
2023-03-15T13:00:15.177Z,3.38
2023-03-15T13:01:15.184Z,3.24
2023-03-15T13:02:15.208Z,3.16
2023-03-15T13:03:15.297Z,2.96
2023-03-15T13:04:15.306Z,2.82
2023-03-15T13:05:15.348Z,2.38
2023-03-15T13:06:15.387Z,2.24
2023-03-15T13:07:15.417Z,2.84
2023-03-15T13:08:15.479Z,3.34
2023-03-15T13:09:15.507Z,3.78
2023-03-15T13:10:15.600Z,4.13
2023-03-15T13:11:15.613Z,4.07
2023-03-15T13:12:15.652Z,4.33
2023-03-15T13:13:15.678Z,4.94
2023-03-15T13:14:15.715Z,4.94
2023-03-15T13:15:15.765Z,3.39
2023-03-15T13:16:15.787Z,2.19
2023-03-15T13:17:15.806Z,1.64
2023-03-15T13:18:15.889Z,1.61
2023-03-15T13:19:15.879Z,1.69
2023-03-15T13:20:15.973Z,1.99
2023-03-15T13:21:16.027Z,2.12
2023-03-15T13:22:16.045Z,1.86
2023-03-15T13:23:16.132Z,1.90
2023-03-15T13:24:16.152Z,2.11
2023-03-15T13:25:16.199Z,2.10
2023-03-15T13:26:16.285Z,2.04
2023-03-15T13:27:16.260Z,2.28
2023-03-15T13:28:16.317Z,1.42
2023-03-15T13:29:16.347Z,1.20
2023-03-15T13:30:16.621Z,1.13
2023-03-15T13:31:16.456Z,0.83
2023-03-15T13:32:16.452Z,1.14
2023-03-15T13:33:16.507Z,1.36
2023-03-15T13:34:16.553Z,1.26
2023-03-15T13:35:16.565Z,1.11
2023-03-15T13:36:16.629Z,1.22
2023-03-15T13:37:16.671Z,1.27
2023-03-15T13:38:16.672Z,1.28
2023-03-15T13:39:16.751Z,1.40
2023-03-15T13:40:16.751Z,1.71
2023-03-15T13:41:16.787Z,1.23
2023-03-15T13:42:16.830Z,0.83
2023-03-15T13:43:16.873Z,0.85
2023-03-15T13:44:16.940Z,0.89
2023-03-15T13:45:16.998Z,0.81
2023-03-15T13:46:17.090Z,0.99
2023-03-15T13:47:17.149Z,1.05
2023-03-15T13:48:17.210Z,1.36
2023-03-15T13:49:17.255Z,1.60
2023-03-15T13:50:17.347Z,1.85
2023-03-15T13:51:17.377Z,2.22
2023-03-15T13:52:17.402Z,1.47
2023-03-15T13:53:17.466Z,0.81
2023-03-15T13:54:17.512Z,0.70
2023-03-15T13:55:17.672Z,1.09
2023-03-15T13:56:17.621Z,1.78
2023-03-15T13:57:17.644Z,4.63
2023-03-15T13:58:17.713Z,9.61
2023-03-15T13:59:17.786Z,17.46
2023-03-15T14:00:17.849Z,31.56
2023-03-15T14:01:17.859Z,49.90
2023-03-15T14:02:17.883Z,66.03
2023-03-15T14:03:17.994Z,73.09
2023-03-15T14:04:17.946Z,74.45
2023-03-15T14:05:17.961Z,55.90
2023-03-15T14:06:17.996Z,73.91
2023-03-15T14:07:18.005Z,101.73
2023-03-15T14:08:18.005Z,129.11
2023-03-15T14:09:18.008Z,155.65
2023-03-15T14:10:18.017Z,175.04
2023-03-15T14:11:18.070Z,178.09
2023-03-15T14:12:17.993Z,167.32
2023-03-15T14:13:17.960Z,160.72
2023-03-15T14:14:17.977Z,157.41
2023-03-15T14:15:18.024Z,162.63
2023-03-15T14:16:18.038Z,105.57
2023-03-15T14:17:18.107Z,103.57
2023-03-15T14:18:18.014Z,147.61
2023-03-15T14:19:17.999Z,137.85
2023-03-15T14:20:18.178Z,104.46
2023-03-15T14:21:17.981Z,113.40
2023-03-15T14:22:18.012Z,160.66
2023-03-15T14:23:18.026Z,153.88
2023-03-15T14:24:17.984Z,145.99
2023-03-15T14:25:18.029Z,137.80
2023-03-15T14:26:18.138Z,105.32
2023-03-15T14:27:18.027Z,118.67
2023-03-15T14:28:18.058Z,136.03
2023-03-15T14:29:18.072Z,170.59
2023-03-15T14:30:18.090Z,208.87
2023-03-15T14:31:18.157Z,261.18
2023-03-15T14:32:18.184Z,290.04
2023-03-15T14:33:18.257Z,309.86
2023-03-15T14:34:18.280Z,308.51
2023-03-15T14:35:18.378Z,312.46
2023-03-15T14:36:18.428Z,329.02
2023-03-15T14:37:18.476Z,277.86
2023-03-15T14:38:18.486Z,202.59
2023-03-15T14:39:18.586Z,255.52
2023-03-15T14:40:18.608Z,295.29
2023-03-15T14:41:18.688Z,312.03
2023-03-15T14:42:18.725Z,296.71
2023-03-15T14:43:18.780Z,277.29
2023-03-15T14:44:18.805Z,273.94
2023-03-15T14:45:18.871Z,217.23
2023-03-15T14:46:18.952Z,224.59
2023-03-15T14:47:18.951Z,203.65
2023-03-15T14:48:19.031Z,234.34
2023-03-15T14:49:19.086Z,279.95
2023-03-15T14:50:19.189Z,291.94
2023-03-15T14:51:19.178Z,317.01
2023-03-15T14:52:19.267Z,315.13
2023-03-15T14:53:19.300Z,338.15
2023-03-15T14:54:19.359Z,359.64
2023-03-15T14:55:19.423Z,357.11
2023-03-15T14:56:20.036Z,374.37
2023-03-15T14:57:19.537Z,389.93
2023-03-15T14:58:19.584Z,400.97
2023-03-15T14:59:19.609Z,323.68
2023-03-15T15:00:19.708Z,319.01
2023-03-15T15:01:19.809Z,121.93
2023-03-15T15:02:19.896Z,92.30
2023-03-15T15:03:19.881Z,96.08
2023-03-15T15:04:19.923Z,154.69
2023-03-15T15:05:20.010Z,206.01
2023-03-15T15:06:20.042Z,256.23
2023-03-15T15:07:20.107Z,274.90
2023-03-15T15:08:20.210Z,290.04
2023-03-15T15:09:20.220Z,299.70
2023-03-15T15:10:20.301Z,307.59
2023-03-15T15:11:20.361Z,275.52
2023-03-15T15:12:20.407Z,307.59
2023-03-15T15:13:20.460Z,298.41
2023-03-15T15:14:20.497Z,292.43
2023-03-15T15:15:20.530Z,321.99
2023-03-15T15:16:20.718Z,330.16
2023-03-15T15:17:20.629Z,360.68
2023-03-15T15:18:20.664Z,374.64
2023-03-15T15:22:20.794Z,432.83
2023-03-15T15:23:20.835Z,451.01
2023-03-15T15:24:20.864Z,439.30
2023-03-15T15:25:20.900Z,464.25
2023-03-15T15:26:20.923Z,474.63
2023-03-15T15:27:20.962Z,466.45
2023-03-15T15:28:33.732Z,474.12
2023-03-15T15:29:21.976Z,474.79
2023-03-15T15:30:20.975Z,473.05
2023-03-15T15:31:21.042Z,472.95
2023-03-15T15:32:20.955Z,454.50
2023-03-15T15:33:20.978Z,463.26
2023-03-15T15:34:20.970Z,479.89
2023-03-15T15:35:20.939Z,502.65
2023-03-15T15:36:20.951Z,503.92
2023-03-15T15:37:20.944Z,518.38
2023-03-15T15:38:20.907Z,527.93
2023-03-15T15:39:20.901Z,537.87
2023-03-15T15:40:20.894Z,559.65
2023-03-15T15:41:20.908Z,589.34
2023-03-15T15:42:20.897Z,583.87
2023-03-15T15:43:20.880Z,603.89
2023-03-15T15:44:20.898Z,620.11
2023-03-15T15:45:20.877Z,624.93
2023-03-15T15:46:20.935Z,642.51
2023-03-15T15:47:20.852Z,630.41
2023-03-15T15:48:20.913Z,608.89
2023-03-15T15:49:20.833Z,629.44
2023-03-15T15:50:20.811Z,641.21
2023-03-15T15:51:20.812Z,692.38
2023-03-15T15:52:20.840Z,691.73
2023-03-15T15:53:20.802Z,750.53
2023-03-15T15:54:20.810Z,800.78
2023-03-15T15:55:20.802Z,458.52
2023-03-15T15:56:20.778Z,355.26
2023-03-15T15:57:20.797Z,374.03
2023-03-15T15:58:20.807Z,457.73
2023-03-15T15:59:20.793Z,486.96
2023-03-15T16:00:20.805Z,141.20
2023-03-15T16:01:20.898Z,133.64
2023-03-15T16:02:21.058Z,133.11
2023-03-15T16:03:20.935Z,157.06
2023-03-15T16:04:20.978Z,139.13
2023-03-15T16:05:21.032Z,165.53
2023-03-15T16:06:21.223Z,201.36
2023-03-15T16:07:21.139Z,228.91
2023-03-15T16:08:21.200Z,300.41
2023-03-15T16:09:21.256Z,342.08
2023-03-15T16:10:21.295Z,352.31
2023-03-15T16:11:21.333Z,340.58
2023-03-15T16:12:21.416Z,336.59
2023-03-15T16:13:21.529Z,349.23
2023-03-15T16:14:21.452Z,359.72
2023-03-15T16:15:21.518Z,321.86
2023-03-15T16:16:21.614Z,312.69
2023-03-15T16:17:21.634Z,371.69
2023-03-15T16:18:21.662Z,376.30
2023-03-15T16:19:21.709Z,386.35
2023-03-15T16:20:21.732Z,384.13
2023-03-15T16:21:21.796Z,376.95
2023-03-15T16:22:21.851Z,363.22
2023-03-15T16:23:21.876Z,365.54
2023-03-15T16:24:21.916Z,366.82
2023-03-15T16:25:21.969Z,359.23
2023-03-15T16:26:22.010Z,360.95
2023-03-15T16:27:22.038Z,343.00
2023-03-15T16:28:22.093Z,352.04
2023-03-15T16:29:22.149Z,346.71
2023-03-15T16:30:22.210Z,345.88
2023-03-15T16:31:22.331Z,333.87
2023-03-15T16:32:36.877Z,334.08
2023-03-15T16:33:23.300Z,334.31
2023-03-15T16:34:22.286Z,334.84
2023-03-15T16:35:22.256Z,334.55
2023-03-15T16:36:22.297Z,331.16
2023-03-15T16:37:22.226Z,326.85
2023-03-15T16:38:22.215Z,324.26
2023-03-15T16:39:22.215Z,323.08
2023-03-15T16:40:22.240Z,320.00